Time;durP1;ratioP1;P1;durP2;ratioP2;P2;SDS_P1;SDS_P2;PMS_P1;PMS_P2;Temp;Humidity;BMP_temperature;BMP_pressure;BME280_temperature;BME280_humidity;BME280_pressure;Samples;Min_cycle;Max_cycle;Signal;HPM_P1;HPM_P2
2022/04/19 00:01:50;;;;;;;6.75;6.13;;;;;;;5.45;100.00;101393.91;5341810;27;20026;-75
2022/04/19 00:04:21;;;;;;;8.45;7.20;;;;;;;5.51;100.00;101392.72;5348917;27;20059;-75
2022/04/19 00:06:52;;;;;;;7.30;6.38;;;;;;;5.58;100.00;101386.94;5347080;27;20431;-75
2022/04/19 00:09:23;;;;;;;7.07;6.38;;;;;;;5.61;100.00;101399.09;5346841;27;41420;-75
2022/04/19 00:11:57;;;;;;;7.63;6.75;;;;;;;5.67;100.00;101393.44;5348671;27;20027;-75
2022/04/19 00:14:28;;;;;;;7.68;6.43;;;;;;;5.71;100.00;101387.00;5347665;27;20023;-75
2022/04/19 00:16:59;;;;;;;7.53;6.80;;;;;;;5.53;100.00;101388.16;5351009;27;20382;-75
2022/04/19 00:19:31;;;;;;;7.80;7.00;;;;;;;5.46;100.00;101388.53;5347006;27;21123;-75
2022/04/19 00:22:03;;;;;;;8.40;7.45;;;;;;;5.35;100.00;101391.03;5344850;27;20031;-75
2022/04/19 00:24:35;;;;;;;7.22;6.53;;;;;;;5.37;100.00;101389.13;5346375;27;20102;-76
2022/04/19 00:27:06;;;;;;;9.43;6.90;;;;;;;5.25;100.00;101390.72;5347342;27;20110;-75
2022/04/19 00:29:41;;;;;;;7.78;6.60;;;;;;;5.32;100.00;101383.25;5345595;27;21247;-75
2022/04/19 00:32:15;;;;;;;7.80;6.70;;;;;;;5.19;100.00;101375.25;5349942;27;20024;-75
2022/04/19 00:34:46;;;;;;;8.75;6.82;;;;;;;5.11;100.00;101381.00;5345498;27;20141;-75
2022/04/19 00:37:21;;;;;;;8.25;6.88;;;;;;;5.03;100.00;101375.34;5349082;27;20466;-75
2022/04/19 00:39:53;;;;;;;8.13;6.80;;;;;;;5.11;100.00;101373.06;5343182;27;20032;-75
2022/04/19 00:42:27;;;;;;;11.02;7.80;;;;;;;5.03;100.00;101377.09;5351933;27;20026;-75
2022/04/19 00:45:03;;;;;;;9.00;7.72;;;;;;;5.03;100.00;101377.97;5347605;27;20127;-75
2022/04/19 00:47:34;;;;;;;7.90;7.03;;;;;;;5.06;100.00;101384.88;5344123;27;20462;-75
2022/04/19 00:50:07;;;;;;;9.85;8.77;;;;;;;5.23;100.00;101379.38;5347170;27;20111;-75
2022/04/19 00:52:39;;;;;;;18.02;10.38;;;;;;;5.45;100.00;101386.84;5342804;27;20066;-75
2022/04/19 00:55:11;;;;;;;10.38;9.27;;;;;;;5.55;100.00;101388.91;5342598;27;20027;-75
2022/04/19 00:57:45;;;;;;;11.60;10.00;;;;;;;5.67;100.00;101380.19;5346273;27;20115;-75
2022/04/19 01:00:17;;;;;;;11.80;9.02;;;;;;;5.75;100.00;101387.63;5343040;27;20085;-76
2022/04/19 01:02:48;;;;;;;11.07;9.15;;;;;;;5.41;100.00;101385.31;5350370;27;20031;-76
2022/04/19 01:05:19;;;;;;;11.52;9.15;;;;;;;5.64;100.00;101386.53;5345724;27;20031;-76
2022/04/19 01:07:51;;;;;;;11.55;9.88;;;;;;;5.63;100.00;101390.13;5347074;27;20034;-76
2022/04/19 01:10:22;;;;;;;11.60;10.40;;;;;;;5.64;100.00;101390.97;5344898;27;20028;-76
2022/04/19 01:15:50;;;;;;;15.88;12.27;;;;;;;5.47;100.00;101384.13;5348970;27;20028;-76
2022/04/19 01:18:24;;;;;;;12.82;9.57;;;;;;;5.44;100.00;101371.91;5344956;27;20016;-76
2022/04/19 01:20:55;;;;;;;15.65;11.00;;;;;;;5.41;100.00;101373.91;5346661;27;20027;-75
2022/04/19 01:23:29;;;;;;;17.27;12.65;;;;;;;5.33;100.00;101369.09;5347444;27;40409;-75
2022/04/19 01:26:02;;;;;;;14.50;13.00;;;;;;;5.35;100.00;101361.03;5351045;27;20036;-75
2022/04/19 01:28:33;;;;;;;16.98;12.75;;;;;;;5.40;100.00;101367.78;5353044;27;20031;-75
2022/04/19 01:31:06;;;;;;;17.60;13.25;;;;;;;5.47;100.00;101350.56;5349870;27;20035;-76
2022/04/19 01:33:37;;;;;;;17.90;13.82;;;;;;;5.52;100.00;101354.69;5349801;27;20011;-76
2022/04/19 01:36:09;;;;;;;16.15;14.15;;;;;;;5.54;100.00;101363.38;5348599;27;33445;-76
2022/04/19 01:38:40;;;;;;;17.67;15.50;;;;;;;5.63;100.00;101365.47;5351379;27;20121;-76
2022/04/19 01:41:12;;;;;;;22.20;14.52;;;;;;;5.61;100.00;101356.75;5347283;27;20397;-76
2022/04/19 01:43:44;;;;;;;18.63;14.10;;;;;;;5.56;100.00;101354.41;5354199;27;20477;-76
2022/04/19 01:46:16;;;;;;;17.67;13.55;;;;;;;5.69;100.00;101355.31;5351795;27;20023;-76
2022/04/19 01:48:48;;;;;;;12.15;10.90;;;;;;;5.48;100.00;101360.19;5350032;27;20054;-76
2022/04/19 01:51:20;;;;;;;12.80;11.50;;;;;;;5.52;100.00;101352.91;5350847;27;20492;-76
2022/04/19 01:53:51;;;;;;;14.13;11.55;;;;;;;5.33;100.00;101355.00;5353835;27;21189;-76
2022/04/19 01:56:23;;;;;;;17.75;12.38;;;;;;;5.18;100.00;101362.97;5349398;27;20392;-76
2022/04/19 01:58:54;;;;;;;16.63;12.90;;;;;;;5.46;100.00;101366.53;5349901;27;20036;-76
2022/04/19 02:01:25;;;;;;;12.85;11.48;;;;;;;5.28;100.00;101364.09;5353668;27;20358;-76
2022/04/19 02:03:57;;;;;;;14.95;11.00;;;;;;;5.46;100.00;101362.09;5349226;27;20032;-76
2022/04/19 02:06:29;;;;;;;13.43;11.88;;;;;;;5.39;100.00;101352.00;5348970;27;20023;-76
2022/04/19 02:09:03;;;;;;;13.18;11.77;;;;;;;5.17;100.00;101355.97;5349215;27;20039;-76
2022/04/19 02:11:43;;;;;;;13.20;11.80;;;;;;;5.05;100.00;101354.94;5348369;27;20027;-76
2022/04/19 02:14:14;;;;;;;12.10;10.55;;;;;;;5.00;100.00;101353.53;5348297;27;27575;-76
2022/04/19 02:16:45;;;;;;;12.23;10.93;;;;;;;4.88;100.00;101353.31;5353924;27;20043;-75
2022/04/19 02:19:17;;;;;;;13.18;11.63;;;;;;;4.74;100.00;101353.31;5345694;27;20031;-75
2022/04/19 02:21:48;;;;;;;13.70;11.48;;;;;;;4.73;100.00;101355.09;5351914;27;20134;-75
2022/04/19 02:24:19;;;;;;;13.68;10.80;;;;;;;4.62;100.00;101352.22;5347532;27;20482;-75
2022/04/19 02:26:51;;;;;;;12.55;11.23;;;;;;;4.41;100.00;101357.00;5350334;27;20170;-75
2022/04/19 02:29:25;;;;;;;13.25;11.85;;;;;;;4.30;100.00;101346.22;5353383;27;20070;-75
2022/04/19 02:31:56;;;;;;;16.00;12.23;;;;;;;4.36;100.00;101353.78;5346666;27;20035;-75
2022/04/19 02:34:29;;;;;;;11.45;10.25;;;;;;;4.43;100.00;101349.81;5349153;27;20119;-75
2022/04/19 02:37:00;;;;;;;15.40;12.68;;;;;;;4.45;100.00;101350.63;5347089;27;20049;-75
2022/04/19 02:39:32;;;;;;;13.13;11.82;;;;;;;4.30;100.00;101351.50;5349716;27;41643;-75
2022/04/19 02:42:05;;;;;;;15.13;13.60;;;;;;;4.51;100.00;101347.59;5354648;27;20020;-75
2022/04/19 02:44:37;;;;;;;13.35;11.85;;;;;;;4.39;100.00;101347.47;5347691;27;20027;-75
2022/04/19 02:47:08;;;;;;;13.15;11.80;;;;;;;4.30;100.00;101344.41;5348749;27;20035;-75
2022/04/19 02:49:39;;;;;;;14.02;12.60;;;;;;;4.37;100.00;101344.06;5351418;27;20079;-75
2022/04/19 02:52:11;;;;;;;16.50;13.27;;;;;;;4.25;100.00;101343.00;5348389;27;20035;-75
2022/04/19 02:54:42;;;;;;;16.77;13.82;;;;;;;4.28;100.00;101345.47;5347002;27;20081;-75
2022/04/19 02:57:14;;;;;;;15.00;13.40;;;;;;;4.32;100.00;101339.91;5347636;27;20358;-76
2022/04/19 02:59:45;;;;;;;16.85;13.70;;;;;;;4.05;100.00;101339.72;5350666;27;20067;-75
2022/04/19 03:02:18;;;;;;;16.65;13.75;;;;;;;4.23;100.00;101337.81;5348595;27;20024;-74
2022/04/19 03:04:49;;;;;;;18.00;13.95;;;;;;;4.07;100.00;101342.28;5347001;27;20414;-75
2022/04/19 03:07:21;;;;;;;15.57;13.38;;;;;;;3.98;100.00;101335.75;5344879;27;20044;-76
2022/04/19 03:09:52;;;;;;;15.38;13.85;;;;;;;3.92;100.00;101338.72;5350504;27;20453;-76
2022/04/19 03:12:23;;;;;;;16.17;14.27;;;;;;;4.14;100.00;101338.34;5348742;27;20135;-76
2022/04/19 03:14:55;;;;;;;16.02;14.40;;;;;;;4.16;100.00;101339.09;5347460;27;20019;-76
2022/04/19 03:17:26;;;;;;;14.55;13.00;;;;;;;4.19;100.00;101340.69;5347516;27;20028;-75
2022/04/19 03:19:58;;;;;;;15.88;12.60;;;;;;;4.15;100.00;101335.63;5345978;27;20085;-76
2022/04/19 03:27:41;;;;;;;16.42;12.88;;;;;;;4.08;100.00;101331.59;5347717;27;20034;-76
2022/04/19 03:28:10;;;;;;;13.90;12.45;;;;;;;4.12;100.00;101341.06;5348155;27;20035;-76
2022/04/19 03:30:43;;;;;;;17.05;13.38;;;;;;;3.87;100.00;101351.31;5348840;27;20472;-75
2022/04/19 03:33:16;;;;;;;14.38;12.60;;;;;;;3.84;100.00;101341.78;5344294;27;20024;-75
2022/04/19 03:35:47;;;;;;;14.20;12.50;;;;;;;3.93;100.00;101343.91;5349269;27;20110;-75
2022/04/19 03:38:19;;;;;;;19.02;13.98;;;;;;;3.98;100.00;101351.56;5343315;27;20122;-75
2022/04/19 03:40:50;;;;;;;15.00;11.93;;;;;;;3.75;100.00;101347.56;5342553;27;20031;-76
2022/04/19 03:43:21;;;;;;;18.08;13.68;;;;;;;3.60;100.00;101341.38;5347253;27;20605;-75
2022/04/19 03:45:53;;;;;;;14.65;12.85;;;;;;;3.63;100.00;101349.13;5348906;27;20008;-75
2022/04/19 03:48:24;;;;;;;15.00;12.23;;;;;;;3.57;100.00;101342.38;5348755;27;20047;-75
2022/04/19 03:50:55;;;;;;;15.25;12.90;;;;;;;3.52;100.00;101343.56;5349069;27;20031;-75
2022/04/19 03:53:27;;;;;;;19.77;13.95;;;;;;;3.40;100.00;101338.06;5346700;27;20027;-75
2022/04/19 03:56:03;;;;;;;17.95;15.15;;;;;;;3.56;100.00;101338.06;5348032;27;20051;-75
2022/04/19 03:58:37;;;;;;;17.38;14.23;;;;;;;3.59;100.00;101350.22;5345737;27;20562;-75
2022/04/19 04:01:08;;;;;;;17.70;14.45;;;;;;;3.56;100.00;101351.25;5345954;27;20027;-75
2022/04/19 04:03:39;;;;;;;15.48;13.88;;;;;;;3.60;100.00;101341.38;5347578;27;20027;-75
2022/04/19 04:06:11;;;;;;;17.70;14.75;;;;;;;3.71;100.00;101346.06;5347365;27;20106;-75
2022/04/19 04:08:42;;;;;;;15.77;13.63;;;;;;;3.77;100.00;101349.19;5346612;27;20057;-75
2022/04/19 04:11:13;;;;;;;15.57;13.80;;;;;;;3.79;100.00;101349.13;5348900;27;20050;-74
2022/04/19 04:13:45;;;;;;;19.50;14.57;;;;;;;3.74;100.00;101345.88;5353336;27;20047;-75
2022/04/19 04:16:16;;;;;;;16.50;13.73;;;;;;;3.81;100.00;101354.31;5348220;27;20027;-75
2022/04/19 04:18:47;;;;;;;14.20;12.68;;;;;;;3.63;100.00;101348.25;5349611;27;20066;-75
2022/04/19 04:21:19;;;;;;;20.30;15.52;;;;;;;3.85;100.00;101345.28;5346197;27;20020;-75
2022/04/19 04:23:50;;;;;;;17.23;14.80;;;;;;;3.92;100.00;101351.91;5348782;27;27773;-75
2022/04/19 04:26:21;;;;;;;19.42;14.80;;;;;;;3.95;100.00;101351.75;5348570;27;20035;-75
2022/04/19 04:28:52;;;;;;;13.93;11.20;;;;;;;3.83;100.00;101355.91;5349071;27;20033;-75
2022/04/19 04:31:24;;;;;;;15.88;12.30;;;;;;;3.77;100.00;101343.94;5346034;27;20076;-75
2022/04/19 04:33:55;;;;;;;14.65;11.65;;;;;;;3.43;100.00;101347.56;5347364;27;20043;-76
2022/04/19 04:36:26;;;;;;;18.67;16.08;;;;;;;3.38;100.00;101353.13;5345643;27;20035;-75
2022/04/19 04:38:58;;;;;;;18.02;14.88;;;;;;;3.22;100.00;101358.34;5351799;27;20039;-75
2022/04/19 04:41:29;;;;;;;14.57;12.38;;;;;;;3.12;100.00;101353.66;5345534;27;20024;-75
2022/04/19 04:44:01;;;;;;;19.92;17.05;;;;;;;3.15;100.00;101359.59;5346191;27;20124;-74
2022/04/19 04:49:37;;;;;;;18.45;16.13;;;;;;;3.64;100.00;101368.44;5344498;27;20047;-74
2022/04/19 04:52:13;;;;;;;23.43;16.03;;;;;;;3.83;100.00;101363.84;5341099;27;20166;-74
2022/04/19 04:54:45;;;;;;;25.40;19.65;;;;;;;4.20;100.00;101360.91;5352925;27;20058;-75
2022/04/19 04:57:18;;;;;;;21.98;17.23;;;;;;;4.29;100.00;101355.06;5349332;27;20043;-75
2022/04/19 04:59:49;;;;;;;19.55;16.45;;;;;;;4.45;100.00;101363.81;5343513;27;20035;-75
2022/04/19 05:02:23;;;;;;;22.83;17.98;;;;;;;4.54;100.00;101362.41;5343932;27;20027;-75
2022/04/19 05:04:54;;;;;;;20.00;15.25;;;;;;;4.71;100.00;101369.34;5344600;27;20504;-74
2022/04/19 05:07:26;;;;;;;24.52;20.75;;;;;;;4.50;100.00;101369.66;5347443;27;20113;-75
2022/04/19 05:09:58;;;;;;;22.30;17.05;;;;;;;4.55;100.00;101364.94;5348718;27;20125;-75
2022/04/19 05:12:30;;;;;;;20.30;17.05;;;;;;;4.61;100.00;101358.47;5350613;27;20440;-74
2022/04/19 05:15:02;;;;;;;19.65;16.45;;;;;;;4.86;100.00;101363.13;5346363;27;20102;-74
2022/04/19 05:17:34;;;;;;;21.27;16.38;;;;;;;5.05;100.00;101364.63;5350828;27;20023;-74
2022/04/19 05:20:06;;;;;;;18.70;14.93;;;;;;;5.28;100.00;101363.25;5352823;27;20035;-75
2022/04/19 05:22:38;;;;;;;17.60;14.35;;;;;;;5.39;100.00;101366.06;5353749;27;20118;-75
2022/04/19 05:25:09;;;;;;;21.48;15.60;;;;;;;5.82;100.00;101365.13;5350427;27;20577;-75
2022/04/19 05:27:40;;;;;;;18.38;14.55;;;;;;;6.02;100.00;101363.88;5347904;27;20019;-75
2022/04/19 05:30:12;;;;;;;17.02;14.55;;;;;;;6.33;100.00;101361.84;5357135;27;20429;-75
2022/04/19 05:32:43;;;;;;;17.48;14.15;;;;;;;6.72;100.00;101368.06;5362887;27;20031;-75
2022/04/19 05:35:14;;;;;;;19.42;14.55;;;;;;;7.00;100.00;101359.91;5345311;27;20028;-75
2022/04/19 05:37:46;;;;;;;19.95;15.80;;;;;;;7.36;100.00;101360.94;5346266;27;20122;-75
2022/04/19 05:40:17;;;;;;;19.77;14.50;;;;;;;7.68;100.00;101357.78;5349390;27;20027;-75
2022/04/19 05:42:48;;;;;;;17.58;14.55;;;;;;;8.01;100.00;101355.41;5345888;27;20035;-75
2022/04/19 05:45:19;;;;;;;19.55;15.15;;;;;;;8.36;100.00;101358.09;5342075;27;20134;-75
2022/04/19 05:47:51;;;;;;;20.33;13.90;;;;;;;8.65;100.00;101352.44;5340565;27;20039;-75
2022/04/19 05:50:22;;;;;;;20.70;14.55;;;;;;;8.94;100.00;101352.84;5350225;27;20019;-75
2022/04/19 05:52:53;;;;;;;19.58;13.80;;;;;;;9.35;100.00;101361.22;5351210;27;20023;-75
2022/04/19 05:55:26;;;;;;;20.00;14.10;;;;;;;9.60;100.00;101355.59;5355370;27;20019;-75
2022/04/19 05:57:58;;;;;;;22.20;13.35;;;;;;;9.97;100.00;101365.91;5348845;27;20039;-75
2022/04/19 06:00:29;;;;;;;22.45;13.10;;;;;;;10.08;100.00;101362.41;5354363;27;20040;-75
2022/04/19 06:05:50;;;;;;;17.95;13.13;;;;;;;10.79;100.00;101368.00;5356724;27;20048;-76
2022/04/19 06:08:21;;;;;;;16.17;12.48;;;;;;;11.03;100.00;101369.56;5357369;27;20466;-75
2022/04/19 06:10:53;;;;;;;15.55;12.73;;;;;;;10.96;100.00;101371.06;5354189;27;20437;-76
2022/04/19 06:13:25;;;;;;;18.30;13.40;;;;;;;11.32;100.00;101368.84;5353107;27;20488;-75
2022/04/19 06:15:56;;;;;;;15.35;12.07;;;;;;;11.65;100.00;101373.03;5370406;27;20027;-76
2022/04/19 06:18:27;;;;;;;17.85;13.40;;;;;;;12.12;100.00;101371.59;5368530;27;20064;-76
2022/04/19 06:20:59;;;;;;;17.13;12.68;;;;;;;12.48;100.00;101373.59;5370890;27;20024;-75
2022/04/19 06:23:34;;;;;;;15.55;12.15;;;;;;;12.87;100.00;101378.03;5368945;27;20321;-76
2022/04/19 06:26:06;;;;;;;15.73;11.77;;;;;;;13.11;100.00;101377.53;5370768;27;20521;-76
2022/04/19 06:28:37;;;;;;;13.52;12.13;;;;;;;13.21;100.00;101372.97;5349718;27;20027;-76
2022/04/19 06:31:08;;;;;;;14.77;11.65;;;;;;;13.63;100.00;101371.69;5349588;27;20016;-75
2022/04/19 06:33:39;;;;;;;15.77;11.30;;;;;;;13.67;100.00;101378.44;5348204;27;20034;-76
2022/04/19 06:36:11;;;;;;;15.85;11.57;;;;;;;13.98;94.59;101373.59;5347187;27;20046;-76
2022/04/19 06:38:42;;;;;;;17.20;12.40;;;;;;;14.65;86.34;101367.00;5348827;27;20114;-76
2022/04/19 06:41:13;;;;;;;13.57;11.40;;;;;;;14.74;86.25;101371.44;5351294;27;20049;-76
2022/04/19 06:43:44;;;;;;;15.45;12.68;;;;;;;15.01;81.07;101375.00;5370321;27;20084;-76
2022/04/19 06:46:17;;;;;;;15.55;11.75;;;;;;;15.68;75.65;101375.97;5350503;27;20011;-76
2022/04/19 06:48:48;;;;;;;15.82;13.00;;;;;;;16.22;70.25;101372.91;5347984;27;20055;-76
2022/04/19 06:51:20;;;;;;;12.23;10.95;;;;;;;16.43;59.74;101377.81;5348605;27;20027;-76
2022/04/19 06:53:52;;;;;;;13.85;11.93;;;;;;;16.97;61.53;101374.59;5347999;27;20182;-76
2022/04/19 06:56:23;;;;;;;14.20;11.65;;;;;;;17.18;53.99;101378.56;5347226;27;20130;-76
2022/04/19 06:58:55;;;;;;;13.50;11.55;;;;;;;17.75;52.60;101374.81;5348076;27;20520;-76
2022/04/19 07:01:27;;;;;;;16.63;11.68;;;;;;;17.97;52.05;101380.47;5346533;27;20031;-76
2022/04/19 07:03:58;;;;;;;13.35;11.18;;;;;;;18.47;47.65;101381.78;5347909;27;20373;-76
2022/04/19 07:06:29;;;;;;;14.77;12.15;;;;;;;18.25;45.40;101376.22;5354871;27;20038;-76
2022/04/19 07:09:01;;;;;;;14.20;11.05;;;;;;;18.58;45.51;101384.03;5369510;27;20041;-76
2022/04/19 07:11:32;;;;;;;14.93;11.90;;;;;;;18.70;45.73;101373.66;5369623;27;20394;-75
2022/04/19 07:14:04;;;;;;;13.15;11.43;;;;;;;19.00;45.24;101379.97;5349997;27;20085;-76
2022/04/19 07:16:35;;;;;;;14.40;11.80;;;;;;;19.25;44.00;101374.31;5346898;27;20020;-76
2022/04/19 07:19:06;;;;;;;13.57;10.90;;;;;;;20.16;42.00;101382.94;5347451;27;20492;-76
2022/04/19 07:27:23;;;;;;;13.40;11.30;;;;;;;21.03;36.94;101380.13;5359637;27;20531;-76
2022/04/19 07:29:55;;;;;;;13.02;11.48;;;;;;;21.34;36.85;101383.22;5346849;27;20019;-76
2022/04/19 07:32:26;;;;;;;15.90;11.03;;;;;;;20.99;35.59;101387.81;5354512;27;20050;-76
2022/04/19 07:34:58;;;;;;;13.55;10.70;;;;;;;21.63;35.02;101386.72;5363044;27;20281;-76
2022/04/19 07:37:30;;;;;;;14.25;10.40;;;;;;;21.66;34.40;101389.03;5346480;27;20114;-76
2022/04/19 07:40:03;;;;;;;14.43;10.55;;;;;;;22.26;33.60;101397.38;5362978;27;20031;-76
2022/04/19 07:42:34;;;;;;;10.77;9.57;;;;;;;22.33;32.50;101396.56;5349178;27;20081;-76
2022/04/19 07:45:06;;;;;;;13.15;10.55;;;;;;;22.85;32.06;101395.75;5358494;27;20422;-76
2022/04/19 07:47:38;;;;;;;12.38;9.57;;;;;;;22.52;33.28;101389.50;5346050;27;20477;-76
2022/04/19 07:50:09;;;;;;;16.07;9.57;;;;;;;23.89;30.56;101392.34;5346876;27;20036;-76
2022/04/19 07:52:40;;;;;;;11.35;10.15;;;;;;;24.31;29.81;101400.91;5345313;27;20272;-76
2022/04/19 07:55:12;;;;;;;12.38;9.55;;;;;;;24.62;29.33;101394.63;5347178;27;20019;-76
2022/04/19 07:57:43;;;;;;;10.55;9.40;;;;;;;24.87;28.68;101394.59;5379641;27;20047;-76
2022/04/19 08:00:16;;;;;;;11.90;10.52;;;;;;;24.76;28.41;101395.34;5346896;27;20036;-76
2022/04/19 08:02:48;;;;;;;11.05;9.32;;;;;;;24.99;28.24;101396.59;5347176;27;20024;-76
2022/04/19 08:05:19;;;;;;;11.25;9.95;;;;;;;25.08;27.89;101395.22;5346705;27;20023;-77
2022/04/19 08:07:50;;;;;;;12.98;9.20;;;;;;;25.39;28.66;101402.50;5371498;27;20126;-76
2022/04/19 08:10:22;;;;;;;11.70;9.93;;;;;;;26.22;27.08;101395.53;5347136;27;20026;-76
2022/04/19 08:12:53;;;;;;;11.95;10.00;;;;;;;26.56;26.00;101392.25;5347448;27;20473;-76
2022/04/19 08:15:24;;;;;;;16.80;9.45;;;;;;;26.92;26.02;101388.50;5366829;27;20098;-76
2022/04/19 08:17:57;;;;;;;11.32;9.73;;;;;;;27.47;25.50;101383.69;5367968;27;20110;-77
2022/04/19 08:20:28;;;;;;;14.48;9.38;;;;;;;27.69;25.40;101390.19;5368497;27;20461;-76
2022/04/19 08:23:00;;;;;;;13.55;8.75;;;;;;;28.34;23.99;101382.63;5361466;27;20177;-76
2022/04/19 08:25:33;;;;;;;14.80;10.00;;;;;;;28.39;23.36;101379.16;5345435;27;20027;-76
2022/04/19 08:28:05;;;;;;;11.57;8.88;;;;;;;27.66;24.33;101381.63;5346755;27;20534;-76
2022/04/19 08:30:36;;;;;;;14.35;9.43;;;;;;;27.83;24.66;101382.50;5346559;27;20051;-76
2022/04/19 08:33:08;;;;;;;11.48;9.30;;;;;;;28.80;23.31;101386.13;5362002;27;20106;-76
2022/04/19 08:35:39;;;;;;;9.70;8.38;;;;;;;28.40;22.55;101367.94;5368835;27;20034;-76
2022/04/19 08:38:10;;;;;;;10.35;7.63;;;;;;;29.07;23.19;101376.34;5368360;27;20034;-76
2022/04/19 08:40:41;;;;;;;9.93;8.00;;;;;;;28.69;22.84;101381.56;5366321;27;20027;-76
2022/04/19 08:43:13;;;;;;;10.10;8.27;;;;;;;29.14;22.55;101377.00;5363241;27;20484;-76
2022/04/19 08:45:44;;;;;;;8.18;6.97;;;;;;;29.45;21.57;101383.75;5352679;27;20043;-76
2022/04/19 08:48:17;;;;;;;9.25;7.22;;;;;;;29.41;21.62;101377.09;5344419;27;20044;-76
2022/04/19 08:50:49;;;;;;;8.55;6.95;;;;;;;29.50;21.93;101372.81;5346424;27;20081;-77
2022/04/19 08:59:04;;;;;;;6.80;6.10;;;;;;;31.44;19.30;101377.44;5361581;27;20027;-77
2022/04/19 09:01:38;;;;;;;7.88;5.35;;;;;;;31.44;19.72;101366.44;5365974;27;20054;-76
2022/04/19 09:04:09;;;;;;;7.68;5.55;;;;;;;32.16;18.73;101370.22;5367006;27;20484;-77
2022/04/19 09:06:55;;;;;;;7.00;6.30;;;;;;;31.96;18.75;101372.91;5367516;27;20026;-77
2022/04/19 09:09:28;;;;;;;7.78;5.68;;;;;;;31.55;19.29;101368.13;5348939;27;20315;-77
2022/04/19 09:12:08;;;;;;;7.97;5.22;;;;;;;31.97;19.01;101363.53;5346172;27;20373;-77
2022/04/19 09:15:06;;;;;;;7.20;4.82;;;;;;;32.23;18.73;101364.44;5345399;27;20042;-77
2022/04/19 09:17:42;;;;;;;6.82;5.22;;;;;;;31.10;19.02;101355.78;5363124;27;20050;-76
2022/04/19 09:20:22;;;;;;;6.70;5.47;;;;;;;31.17;19.72;101361.91;5367036;27;20062;-76
2022/04/19 09:23:10;;;;;;;6.03;5.10;;;;;;;31.19;19.48;101356.09;5362869;27;20047;-76
2022/04/19 09:25:43;;;;;;;7.43;6.00;;;;;;;30.00;19.67;101350.81;5357941;27;20094;-76
2022/04/19 09:28:16;;;;;;;7.00;5.43;;;;;;;30.50;19.38;101360.63;5367945;27;20023;-76
2022/04/19 09:30:52;;;;;;;8.27;6.20;;;;;;;30.72;19.75;101357.78;5366877;27;20491;-76
2022/04/19 09:33:25;;;;;;;8.18;5.82;;;;;;;31.78;19.30;101349.44;5358072;27;20037;-76
2022/04/19 09:35:58;;;;;;;5.90;5.10;;;;;;;31.80;18.22;101356.38;5345629;27;20516;-76
2022/04/19 09:38:45;;;;;;;9.55;5.68;;;;;;;32.62;18.65;101355.59;5343272;27;20020;-76
2022/04/19 09:41:29;;;;;;;8.82;4.85;;;;;;;33.40;17.38;101357.03;5349067;27;20031;-76
2022/04/19 09:44:08;;;;;;;8.27;5.15;;;;;;;33.20;17.97;101357.13;5360900;27;20046;-76
2022/04/19 09:47:00;;;;;;;8.38;5.05;;;;;;;33.96;16.93;101353.13;5348609;27;20358;-76
2022/04/19 09:49:48;;;;;;;7.75;5.00;;;;;;;33.69;17.20;101354.38;5348741;27;20019;-76
2022/04/19 09:52:23;;;;;;;6.28;4.30;;;;;;;33.21;17.31;101347.72;5349187;27;20513;-76
2022/04/19 09:55:09;;;;;;;6.22;4.05;;;;;;;35.13;16.15;101346.75;5349124;27;20024;-76
2022/04/19 09:57:41;;;;;;;5.65;4.53;;;;;;;34.57;15.95;101342.63;5351599;27;20027;-76
2022/04/19 10:00:14;;;;;;;4.97;4.13;;;;;;;34.36;15.76;101348.38;5371163;27;20440;-76
2022/04/19 10:08:40;;;;;;;5.00;4.15;;;;;;;34.57;15.65;101343.47;5324361;27;20122;-76
2022/04/19 10:11:12;;;;;;;8.07;4.90;;;;;;;34.26;16.02;101331.88;5348836;27;20030;-76
2022/04/19 10:13:44;;;;;;;7.22;4.50;;;;;;;35.42;15.51;101329.22;5360723;27;20031;-76
2022/04/19 10:16:16;;;;;;;5.72;4.85;;;;;;;35.08;14.93;101344.84;5370675;27;20027;-76
2022/04/19 10:18:47;;;;;;;6.78;4.72;;;;;;;34.51;15.48;101330.78;5369917;27;20068;-76
2022/04/19 10:21:23;;;;;;;6.35;4.03;;;;;;;34.09;16.22;101326.72;5370134;27;20394;-76
2022/04/19 10:24:12;;;;;;;5.00;4.45;;;;;;;35.09;15.57;101329.88;5354943;27;20469;-76
2022/04/19 10:26:48;;;;;;;6.53;4.60;;;;;;;33.67;16.29;101333.69;5348457;27;20409;-76
2022/04/19 10:29:25;;;;;;;4.95;4.15;;;;;;;33.80;16.20;101338.59;5346719;27;20042;-76
2022/04/19 10:32:10;;;;;;;5.95;4.55;;;;;;;34.08;16.43;101334.22;5361685;27;20388;-76
2022/04/19 10:34:44;;;;;;;7.40;5.03;;;;;;;33.10;16.86;101342.22;5369414;27;20027;-76
2022/04/19 10:37:15;;;;;;;7.22;5.40;;;;;;;33.28;16.81;101340.78;5369438;27;20031;-76
2022/04/19 10:39:51;;;;;;;6.53;5.13;;;;;;;33.09;16.98;101336.97;5355662;27;20035;-76
2022/04/19 10:42:37;;;;;;;7.22;4.70;;;;;;;33.21;16.72;101328.38;5367965;27;20437;-76
2022/04/19 10:45:11;;;;;;;9.55;5.38;;;;;;;35.12;16.00;101323.75;5360349;27;20031;-76
2022/04/19 10:47:51;;;;;;;8.82;5.05;;;;;;;34.75;16.50;101322.53;5347653;27;20036;-77
2022/04/19 10:50:36;;;;;;;6.20;4.93;;;;;;;35.08;15.93;101322.69;5360130;27;21347;-77
2022/04/19 10:53:09;;;;;;;6.00;5.03;;;;;;;34.13;15.84;101322.25;5369966;27;20026;-77
2022/04/19 10:55:57;;;;;;;6.90;4.85;;;;;;;36.05;15.67;101320.50;5365946;27;20015;-76
2022/04/19 10:58:40;;;;;;;8.65;5.10;;;;;;;36.55;14.96;101305.19;5347291;27;20417;-76
2022/04/19 11:01:31;;;;;;;7.38;5.07;;;;;;;36.98;15.33;101316.06;5348216;27;20036;-77
2022/04/19 11:04:03;;;;;;;5.90;3.92;;;;;;;36.43;14.36;101306.53;5353371;27;20098;-77
2022/04/19 11:06:37;;;;;;;8.95;5.10;;;;;;;36.63;14.83;101310.06;5369690;27;20165;-76
2022/04/19 11:09:19;;;;;;;7.77;5.63;;;;;;;37.20;14.42;101302.22;5369496;27;20035;-77
2022/04/19 11:11:53;;;;;;;5.88;4.40;;;;;;;37.18;15.36;101298.13;5368246;27;20023;-77
2022/04/19 11:14:40;;;;;;;7.57;5.30;;;;;;;38.39;14.11;101303.81;5370040;27;20114;-77
2022/04/19 11:17:20;;;;;;;7.15;4.95;;;;;;;37.71;13.96;101291.88;5369891;27;20027;-76
2022/04/19 11:19:56;;;;;;;7.13;4.60;;;;;;;37.94;13.50;101289.09;5367551;27;20057;-77
2022/04/19 11:22:44;;;;;;;6.95;4.68;;;;;;;37.71;14.33;101296.66;5365960;27;20080;-77
2022/04/19 11:25:34;;;;;;;5.63;4.95;;;;;;;36.23;14.25;101293.03;5369418;27;20019;-77
2022/04/19 11:28:08;;;;;;;7.90;4.97;;;;;;;36.20;15.04;101290.81;5367474;27;20023;-77
2022/04/19 11:30:55;;;;;;;6.40;5.13;;;;;;;36.74;14.47;101286.50;5369146;27;20020;-77
2022/04/19 11:33:34;;;;;;;6.05;4.85;;;;;;;37.64;14.05;101283.16;5368740;27;20548;-77
2022/04/19 11:36:10;;;;;;;6.65;4.80;;;;;;;37.68;13.21;101284.19;5352383;27;20112;-77
2022/04/19 11:38:44;;;;;;;9.93;5.30;;;;;;;37.24;13.78;101288.56;5345785;27;20100;-77
2022/04/19 11:47:02;;;;;;;6.72;5.40;;;;;;;37.25;12.99;101295.75;5347150;27;20436;-77
2022/04/19 11:49:35;;;;;;;6.88;5.00;;;;;;;36.77;13.75;101291.44;5346912;27;20073;-77
2022/04/19 11:52:09;;;;;;;8.52;5.00;;;;;;;37.09;14.09;101287.69;5347461;27;20019;-76
2022/04/19 11:54:41;;;;;;;7.85;5.60;;;;;;;36.84;14.35;101289.06;5365617;27;20450;-76
2022/04/19 11:57:12;;;;;;;6.57;5.10;;;;;;;37.23;13.80;101284.09;5366986;27;20015;-77
2022/04/19 11:59:43;;;;;;;6.45;4.80;;;;;;;35.82;14.02;101291.75;5368599;27;20403;-77
2022/04/19 12:02:19;;;;;;;7.47;5.30;;;;;;;36.22;14.68;101289.44;5356011;27;20055;-77
2022/04/19 12:04:53;;;;;;;6.28;5.30;;;;;;;37.31;13.78;101282.53;5345000;27;20269;-77
2022/04/19 12:07:27;;;;;;;6.82;4.88;;;;;;;37.83;13.96;101277.41;5347481;27;20043;-77
2022/04/19 12:09:59;;;;;;;6.43;4.35;;;;;;;37.34;13.70;101277.16;5366368;27;20041;-77
2022/04/19 12:12:30;;;;;;;5.72;4.65;;;;;;;37.66;13.66;101272.56;5368314;27;20038;-77
2022/04/19 12:15:01;;;;;;;7.15;5.63;;;;;;;37.01;13.97;101266.22;5368443;27;20500;-77
2022/04/19 12:17:33;;;;;;;6.85;5.20;;;;;;;37.66;13.37;101267.00;5367435;27;20098;-77